Time;durP1;ratioP1;P1;durP2;ratioP2;P2;SDS_P1;SDS_P2;PMS_P1;PMS_P2;Temp;Humidity;BMP_temperature;BMP_pressure;BME280_temperature;BME280_humidity;BME280_pressure;Samples;Min_cycle;Max_cycle;Signal;HPM_P1;HPM_P2
2022/01/09 00:00:10;;;;;;;0.80;0.80;;;;;;;22.49;8.79;99408.75;5073688;28;20044;-70
2022/01/09 00:02:35;;;;;;;0.93;0.90;;;;;;;22.46;8.74;99420.22;5073699;28;20024;-69
2022/01/09 00:05:00;;;;;;;0.80;0.80;;;;;;;22.52;8.68;99412.81;5073685;28;20473;-69
2022/01/09 00:07:26;;;;;;;1.02;0.93;;;;;;;22.50;8.69;99410.38;5073611;28;20028;-69
2022/01/09 00:09:51;;;;;;;0.80;0.80;;;;;;;22.45;8.67;99407.72;5073575;28;20352;-69
2022/01/09 00:12:17;;;;;;;0.70;0.70;;;;;;;22.49;8.67;99415.00;5074074;28;20020;-69
2022/01/09 00:14:42;;;;;;;0.90;0.90;;;;;;;22.48;8.81;99407.94;5073096;28;20387;-69
2022/01/09 00:17:07;;;;;;;0.90;0.90;;;;;;;22.46;8.68;99406.63;5073115;28;20033;-69
2022/01/09 00:19:33;;;;;;;1.13;1.02;;;;;;;22.51;8.65;99406.56;5073524;28;20035;-69
2022/01/09 00:21:58;;;;;;;1.00;0.90;;;;;;;22.50;8.60;99408.44;5073841;28;20036;-69
2022/01/09 00:24:24;;;;;;;0.77;0.77;;;;;;;22.47;8.58;99411.78;5073471;28;20082;-69
2022/01/09 00:26:49;;;;;;;0.88;0.88;;;;;;;22.47;8.68;99416.38;5073498;28;20047;-69
2022/01/09 00:29:14;;;;;;;0.85;0.85;;;;;;;22.48;8.80;99409.84;5073533;28;20024;-69
2022/01/09 00:31:40;;;;;;;0.80;0.80;;;;;;;22.52;8.53;99402.72;5073466;28;20111;-69
2022/01/09 00:34:05;;;;;;;0.80;0.80;;;;;;;22.51;8.61;99401.13;5073532;28;20577;-69
2022/01/09 00:36:31;;;;;;;0.80;0.80;;;;;;;22.52;8.61;99401.91;5073207;28;20106;-69
2022/01/09 00:38:57;;;;;;;0.98;0.90;;;;;;;22.48;8.55;99401.69;5073022;28;20027;-69
2022/01/09 00:41:22;;;;;;;1.10;1.00;;;;;;;22.48;8.63;99398.97;5066202;28;20028;-69
2022/01/09 00:43:51;;;;;;;1.20;1.10;;;;;;;22.47;8.67;99398.16;5053025;28;20033;-69
2022/01/09 00:46:17;;;;;;;1.10;1.00;;;;;;;22.46;8.67;99393.81;5053019;28;20120;-69
2022/01/09 00:48:42;;;;;;;0.88;0.73;;;;;;;22.48;8.55;99396.25;5053373;28;20044;-69
2022/01/09 00:51:07;;;;;;;1.05;0.90;;;;;;;22.49;8.61;99390.50;5053196;28;20025;-69
2022/01/09 00:53:33;;;;;;;1.10;0.98;;;;;;;22.52;8.53;99380.94;5052113;28;20036;-69
2022/01/09 00:55:59;;;;;;;1.00;1.00;;;;;;;22.48;8.56;99379.91;5052962;28;20460;-69
2022/01/09 00:58:24;;;;;;;0.75;0.75;;;;;;;22.45;8.61;99380.47;5053258;28;20049;-69
2022/01/09 01:00:49;;;;;;;1.10;0.98;;;;;;;22.52;8.61;99375.50;5053469;28;20082;-69
2022/01/09 01:03:15;;;;;;;0.80;0.80;;;;;;;22.48;8.61;99372.53;5053000;28;20086;-69
2022/01/09 01:05:40;;;;;;;1.20;1.10;;;;;;;22.46;8.58;99382.91;5052880;28;20025;-69
2022/01/09 01:08:06;;;;;;;1.00;0.98;;;;;;;22.48;8.58;99374.47;5052985;28;20033;-69
2022/01/09 01:10:31;;;;;;;0.90;0.90;;;;;;;22.45;8.49;99375.03;5056408;28;20025;-69
2022/01/09 01:12:56;;;;;;;0.98;0.77;;;;;;;22.49;8.65;99381.50;5056615;28;20033;-69
2022/01/09 01:15:22;;;;;;;0.80;0.80;;;;;;;22.47;8.67;99378.28;5056241;28;20032;-69
2022/01/09 01:17:47;;;;;;;1.20;1.00;;;;;;;22.49;8.54;99378.78;5055932;28;20037;-69
2022/01/09 01:20:13;;;;;;;1.10;1.00;;;;;;;22.54;8.65;99383.38;5056169;28;20030;-69
2022/01/09 01:22:40;;;;;;;1.00;0.90;;;;;;;22.46;8.61;99377.47;5056345;28;20108;-69
2022/01/09 01:25:06;;;;;;;1.00;1.00;;;;;;;22.44;8.66;99385.13;5055140;28;20029;-70
2022/01/09 01:27:31;;;;;;;1.00;1.00;;;;;;;22.45;8.55;99386.72;5056161;28;20060;-69
2022/01/09 01:29:57;;;;;;;1.10;1.00;;;;;;;22.47;8.56;99389.16;5054941;28;20021;-69
2022/01/09 01:32:23;;;;;;;0.90;0.90;;;;;;;22.49;8.66;99385.06;5056156;28;20032;-69
2022/01/09 01:34:48;;;;;;;1.10;1.00;;;;;;;22.45;8.63;99380.47;5055813;28;20379;-69
2022/01/09 01:37:14;;;;;;;1.30;1.20;;;;;;;22.48;8.63;99386.16;5055946;28;20029;-69
2022/01/09 01:39:39;;;;;;;1.02;0.93;;;;;;;22.47;8.68;99381.00;5056086;28;20151;-69
2022/01/09 01:42:05;;;;;;;1.10;1.00;;;;;;;22.48;8.67;99379.91;5067817;28;20036;-70
2022/01/09 01:44:44;;;;;;;1.30;1.20;;;;;;;22.49;8.68;99376.06;5075922;28;20028;-70
2022/01/09 01:47:10;;;;;;;1.23;1.13;;;;;;;22.48;8.62;99382.63;5075810;28;20032;-69
2022/01/09 01:49:35;;;;;;;1.30;1.10;;;;;;;22.45;8.68;99380.47;5075507;28;20029;-69
2022/01/09 01:52:01;;;;;;;1.23;1.13;;;;;;;22.45;8.63;99385.94;5075457;28;20032;-69
2022/01/09 01:54:27;;;;;;;1.17;1.08;;;;;;;22.50;8.68;99389.38;5074468;28;20021;-69
2022/01/09 01:56:53;;;;;;;1.55;1.35;;;;;;;22.50;8.60;99388.59;5075313;28;20470;-69
2022/01/09 01:59:18;;;;;;;1.20;1.10;;;;;;;22.47;8.68;99389.16;5075444;28;20031;-69
2022/01/09 02:01:43;;;;;;;1.10;1.00;;;;;;;22.49;8.73;99386.97;5075132;28;20433;-69
2022/01/09 02:04:09;;;;;;;1.20;1.10;;;;;;;22.44;8.80;99400.66;5074136;28;20032;-69
2022/01/09 02:06:34;;;;;;;1.15;1.05;;;;;;;22.45;8.66;99391.38;5075401;28;20021;-69
2022/01/09 02:09:01;;;;;;;1.30;1.20;;;;;;;22.48;8.71;99391.59;5057139;28;20382;-69
2022/01/09 02:11:26;;;;;;;1.35;1.23;;;;;;;22.48;8.71;99391.59;5075072;28;20024;-69
2022/01/09 02:13:52;;;;;;;0.93;0.90;;;;;;;22.48;8.74;99390.78;5073837;28;20032;-69
2022/01/09 02:16:18;;;;;;;1.40;1.30;;;;;;;22.46;8.74;99387.56;5075027;28;20031;-69
2022/01/09 02:18:46;;;;;;;1.17;1.08;;;;;;;22.46;8.76;99387.56;5074682;28;20040;-69
2022/01/09 02:21:13;;;;;;;1.13;1.02;;;;;;;22.48;8.69;99396.25;5074022;28;20033;-70
2022/01/09 02:23:41;;;;;;;1.15;1.05;;;;;;;22.44;8.81;99389.78;5074040;28;20029;-69
2022/01/09 02:26:06;;;;;;;1.67;1.58;;;;;;;22.44;8.81;99390.56;5075181;28;20028;-69
2022/01/09 02:28:32;;;;;;;1.25;1.15;;;;;;;22.50;8.76;99380.41;5075097;28;20153;-69
2022/01/09 02:30:57;;;;;;;1.30;1.20;;;;;;;22.50;8.78;99380.41;5075096;28;20021;-68
2022/01/09 02:33:23;;;;;;;1.63;1.40;;;;;;;22.49;8.75;99387.78;5075112;28;20522;-68
2022/01/09 02:35:52;;;;;;;1.25;1.15;;;;;;;22.46;8.82;99387.56;5074996;28;20025;-69
2022/01/09 02:38:18;;;;;;;1.55;1.40;;;;;;;22.49;8.78;99386.97;5074846;28;20024;-69
2022/01/09 02:40:49;;;;;;;1.40;1.30;;;;;;;22.52;8.81;99391.81;5074745;28;20021;-70
2022/01/09 02:43:14;;;;;;;1.50;1.20;;;;;;;22.49;8.86;99393.22;5054432;28;20490;-69
2022/01/09 02:45:41;;;;;;;1.50;1.40;;;;;;;22.50;8.72;99394.84;5054764;28;20029;-70
2022/01/09 02:48:09;;;;;;;1.35;1.25;;;;;;;22.47;8.89;99389.16;5054421;28;20091;-70
2022/01/09 02:50:50;;;;;;;1.63;1.23;;;;;;;22.51;8.81;99387.50;5054611;28;20104;-69
2022/01/09 02:53:20;;;;;;;1.23;1.13;;;;;;;22.54;8.77;99389.63;5054279;28;20498;-69
2022/01/09 02:55:45;;;;;;;1.33;1.23;;;;;;;22.45;8.92;99403.06;5053407;28;20028;-69
2022/01/09 02:58:11;;;;;;;1.58;1.40;;;;;;;22.50;8.69;99391.31;5054203;28;20032;-69
2022/01/09 03:00:38;;;;;;;1.45;1.30;;;;;;;22.52;8.76;99391.81;5054187;28;20032;-69
2022/01/09 03:03:04;;;;;;;1.60;1.40;;;;;;;22.51;8.85;99395.66;5054386;28;20104;-69
2022/01/09 03:05:29;;;;;;;1.23;1.13;;;;;;;22.44;8.86;99397.94;5054390;28;20104;-69
2022/01/09 03:07:55;;;;;;;1.52;1.42;;;;;;;22.48;8.93;99396.25;5054597;28;20025;-69
2022/01/09 03:10:21;;;;;;;1.50;1.40;;;;;;;22.47;8.94;99391.88;5054053;28;20029;-69
2022/01/09 03:12:47;;;;;;;1.48;1.38;;;;;;;22.50;8.98;99394.03;5052725;28;20031;-69
2022/01/09 03:15:12;;;;;;;1.33;1.23;;;;;;;22.46;8.85;99393.81;5054019;28;20033;-69
2022/01/09 03:17:38;;;;;;;1.40;1.20;;;;;;;22.48;8.93;99397.03;5053749;28;20041;-69
2022/01/09 03:20:05;;;;;;;1.80;1.50;;;;;;;22.48;8.85;99393.53;5054013;28;20408;-69
2022/01/09 03:22:30;;;;;;;1.30;1.20;;;;;;;22.48;8.81;99391.59;5054043;28;20017;-69
2022/01/09 03:24:56;;;;;;;1.40;1.30;;;;;;;22.48;8.98;99393.53;5053725;28;20365;-70
2022/01/09 03:27:21;;;;;;;1.35;1.25;;;;;;;22.47;8.87;99400.06;5053693;28;20033;-69
2022/01/09 03:29:47;;;;;;;1.50;1.40;;;;;;;22.53;9.01;99398.91;5053853;28;20032;-69
2022/01/09 03:32:12;;;;;;;1.67;1.55;;;;;;;22.53;8.88;99398.91;5053571;28;20103;-68
2022/01/09 03:34:38;;;;;;;1.50;1.40;;;;;;;22.48;8.81;99396.25;5053893;28;20017;-69
2022/01/09 03:37:04;;;;;;;1.50;1.40;;;;;;;22.45;8.86;99396.81;5053435;28;20025;-69
2022/01/09 03:39:29;;;;;;;1.20;1.10;;;;;;;22.49;8.88;99398.69;5053469;28;20128;-69
2022/01/09 03:41:55;;;;;;;1.30;1.20;;;;;;;22.49;8.85;99403.28;5062645;28;20025;-68
2022/01/09 03:44:20;;;;;;;1.50;1.40;;;;;;;22.46;8.85;99406.63;5073637;28;20027;-69
2022/01/09 03:46:46;;;;;;;1.48;1.27;;;;;;;22.46;8.91;99409.34;5073481;28;20024;-69
2022/01/09 03:49:11;;;;;;;1.60;1.48;;;;;;;22.52;8.86;99407.34;5073415;28;20066;-69
2022/01/09 03:51:38;;;;;;;1.60;1.48;;;;;;;22.51;8.81;99412.00;5073761;28;20032;-69
2022/01/09 03:54:04;;;;;;;1.45;1.35;;;;;;;22.46;8.85;99406.63;5073441;28;20116;-69
2022/01/09 03:56:29;;;;;;;1.60;1.50;;;;;;;22.48;8.92;99409.84;5073605;28;20055;-69
2022/01/09 03:58:55;;;;;;;1.27;1.17;;;;;;;22.47;8.99;99408.22;5073543;28;20468;-70
2022/01/09 04:01:20;;;;;;;1.58;1.38;;;;;;;22.47;8.86;99405.50;5073274;28;20380;-69
2022/01/09 04:03:46;;;;;;;1.80;1.70;;;;;;;22.46;8.87;99415.59;5073486;28;20116;-69
2022/01/09 04:06:11;;;;;;;1.70;1.60;;;;;;;22.46;8.96;99412.06;5073513;28;20029;-70
2022/01/09 04:08:38;;;;;;;1.40;1.30;;;;;;;22.52;8.82;99419.06;5073522;28;20498;-69
2022/01/09 04:11:03;;;;;;;1.42;1.30;;;;;;;22.50;8.83;99407.66;5073546;28;20029;-69
2022/01/09 04:13:29;;;;;;;1.77;1.63;;;;;;;22.47;8.88;99410.94;5073654;28;20028;-69
2022/01/09 04:15:54;;;;;;;1.42;1.33;;;;;;;22.46;8.78;99412.88;5073107;28;20021;-69
2022/01/09 04:18:21;;;;;;;1.17;1.08;;;;;;;22.45;8.94;99413.16;5073076;28;20048;-69
2022/01/09 04:20:47;;;;;;;1.55;1.42;;;;;;;22.51;8.86;99412.00;5073554;28;20033;-69
2022/01/09 04:23:12;;;;;;;1.40;1.25;;;;;;;22.40;8.87;99413.22;5073653;28;20514;-69
2022/01/09 04:25:39;;;;;;;1.55;1.45;;;;;;;22.47;8.81;99416.38;5073468;28;20031;-68
2022/01/09 04:28:04;;;;;;;1.77;1.50;;;;;;;22.46;8.82;99417.50;5073673;28;20115;-69
2022/01/09 04:30:29;;;;;;;1.55;1.38;;;;;;;22.48;8.99;99418.81;5073373;28;20024;-69
2022/01/09 04:32:55;;;;;;;1.73;1.50;;;;;;;22.44;8.76;99423.25;5073264;28;20033;-69
2022/01/09 04:35:20;;;;;;;1.40;1.30;;;;;;;22.40;8.79;99421.38;5073276;28;20470;-69
2022/01/09 04:37:47;;;;;;;1.58;1.45;;;;;;;22.43;8.77;99420.81;5073143;28;20025;-68
2022/01/09 04:40:14;;;;;;;2.75;1.65;;;;;;;22.47;8.79;99422.66;5072826;28;20467;-69
2022/01/09 04:42:44;;;;;;;2.13;1.70;;;;;;;22.47;8.80;99416.38;5059154;28;20055;-69
2022/01/09 04:45:11;;;;;;;1.60;1.50;;;;;;;22.48;8.85;99423.47;5056670;28;20036;-69
2022/01/09 04:47:39;;;;;;;1.45;1.35;;;;;;;22.45;8.87;99415.88;5056935;28;20021;-69
2022/01/09 04:50:06;;;;;;;1.63;1.50;;;;;;;22.47;8.75;99419.13;5055747;28;20089;-69
2022/01/09 04:52:35;;;;;;;1.30;1.20;;;;;;;22.45;8.74;99418.59;5056457;28;20025;-69
2022/01/09 04:55:00;;;;;;;1.63;1.52;;;;;;;22.43;8.82;99421.59;5056459;28;20434;-69
2022/01/09 04:57:26;;;;;;;1.92;1.60;;;;;;;22.45;8.83;99422.13;5056393;28;20024;-69
2022/01/09 04:59:51;;;;;;;1.70;1.60;;;;;;;22.43;8.80;99427.06;5056815;28;20055;-68
2022/01/09 05:02:17;;;;;;;1.90;1.63;;;;;;;22.48;8.75;99426.19;5056463;28;20028;-70
2022/01/09 05:04:42;;;;;;;1.55;1.45;;;;;;;22.45;8.71;99418.59;5056302;28;20037;-69
2022/01/09 05:07:07;;;;;;;2.20;1.90;;;;;;;22.44;8.90;99422.44;5056596;28;20021;-70
2022/01/09 05:09:33;;;;;;;1.42;1.33;;;;;;;22.46;8.62;99426.47;5056229;28;20075;-70
2022/01/09 05:11:58;;;;;;;2.00;1.73;;;;;;;22.45;8.85;99424.03;5056624;28;20064;-70
2022/01/09 05:14:24;;;;;;;2.28;1.75;;;;;;;22.47;8.95;99421.84;5056546;28;20110;-69
2022/01/09 05:16:50;;;;;;;1.67;1.58;;;;;;;22.44;8.88;99427.88;5055742;28;20401;-69
2022/01/09 05:19:28;;;;;;;1.80;1.60;;;;;;;22.44;8.85;99422.44;5056074;28;20484;-69
2022/01/09 05:21:54;;;;;;;1.90;1.58;;;;;;;22.48;8.92;99428.91;5056777;28;20048;-70
2022/01/09 05:24:19;;;;;;;1.83;1.52;;;;;;;22.45;8.83;99429.50;5056703;28;20033;-69
2022/01/09 05:26:45;;;;;;;1.27;1.17;;;;;;;22.41;8.93;99434.69;5057826;28;20024;-69
2022/01/09 05:29:10;;;;;;;2.28;1.77;;;;;;;22.44;8.86;99433.31;5056014;28;20094;-69
2022/01/09 05:31:36;;;;;;;1.42;1.33;;;;;;;22.45;8.85;99434.94;5056104;28;20021;-70
2022/01/09 05:34:01;;;;;;;1.45;1.35;;;;;;;22.47;8.83;99443.63;5056131;28;20021;-69
2022/01/09 05:36:27;;;;;;;1.70;1.60;;;;;;;22.45;8.85;99441.19;5056124;28;20028;-69
2022/01/09 05:38:52;;;;;;;1.98;1.73;;;;;;;22.47;8.95;99440.88;5055949;28;20029;-70
2022/01/09 05:41:17;;;;;;;1.73;1.63;;;;;;;22.50;8.94;99448.47;5057122;28;20025;-70
2022/01/09 05:43:43;;;;;;;1.95;1.75;;;;;;;22.47;9.11;99443.63;5075721;28;20483;-69
2022/01/09 05:46:08;;;;;;;2.08;1.73;;;;;;;22.43;8.87;99448.81;5076000;28;20024;-69
2022/01/09 05:48:34;;;;;;;1.83;1.73;;;;;;;22.46;8.93;99452.91;5075973;28;20029;-69
2022/01/09 05:50:59;;;;;;;1.60;1.45;;;;;;;22.48;8.91;99450.69;5075862;28;20052;-69
2022/01/09 05:53:24;;;;;;;2.17;1.77;;;;;;;22.45;8.96;99448.53;5075798;28;20024;-69
2022/01/09 05:55:50;;;;;;;2.22;1.90;;;;;;;22.46;8.98;99463.78;5075250;28;20463;-69
2022/01/09 05:58:15;;;;;;;1.67;1.58;;;;;;;22.41;9.00;99461.94;5075335;28;20039;-70
2022/01/09 06:00:41;;;;;;;2.53;1.80;;;;;;;22.48;8.98;99464.31;5075241;28;20024;-69
2022/01/09 06:03:06;;;;;;;2.25;1.73;;;;;;;22.45;8.87;99468.41;5075614;28;20025;-69
2022/01/09 06:05:31;;;;;;;1.77;1.60;;;;;;;22.46;9.01;99469.22;5075599;28;20021;-69
2022/01/09 06:07:57;;;;;;;1.90;1.75;;;;;;;22.42;9.00;99473.63;5075185;28;20094;-70
2022/01/09 06:10:22;;;;;;;1.75;1.48;;;;;;;22.48;8.92;99477.91;5075459;28;20107;-70
2022/01/09 06:12:48;;;;;;;1.98;1.75;;;;;;;22.45;9.00;99484.75;5075081;28;20458;-69
2022/01/09 06:15:13;;;;;;;1.73;1.60;;;;;;;22.47;8.89;99492.63;5075277;28;20020;-69
2022/01/09 06:17:40;;;;;;;2.05;1.85;;;;;;;22.46;8.86;99493.72;5075043;28;20051;-69
2022/01/09 06:20:08;;;;;;;1.70;1.60;;;;;;;22.47;8.93;99493.44;5075242;28;20056;-69
2022/01/09 06:22:34;;;;;;;1.98;1.65;;;;;;;22.48;8.95;99499.69;5075545;28;20028;-70
2022/01/09 06:24:59;;;;;;;1.75;1.63;;;;;;;22.47;8.93;99498.06;5074096;28;20032;-69
2022/01/09 06:27:24;;;;;;;2.08;1.77;;;;;;;22.41;9.10;99500.03;5079138;28;20395;-69
2022/01/09 06:29:50;;;;;;;2.38;1.98;;;;;;;22.45;9.03;99501.06;5083294;28;20435;-69
2022/01/09 06:32:15;;;;;;;1.65;1.55;;;;;;;22.41;9.03;99508.19;5086123;28;20025;-70
2022/01/09 06:34:41;;;;;;;1.80;1.70;;;;;;;22.44;8.99;99515.00;5085093;28;20029;-69
2022/01/09 06:37:07;;;;;;;2.30;1.77;;;;;;;22.43;9.01;99518.81;5086221;28;20029;-69
2022/01/09 06:39:32;;;;;;;1.73;1.55;;;;;;;22.45;8.95;99517.41;5084662;28;20020;-69
2022/01/09 06:41:58;;;;;;;1.77;1.67;;;;;;;22.47;9.02;99519.84;5080415;28;20023;-69
2022/01/09 06:44:23;;;;;;;1.77;1.42;;;;;;;22.46;9.06;99520.97;5062174;28;20022;-69
2022/01/09 06:46:48;;;;;;;2.13;1.83;;;;;;;22.45;9.01;99522.03;5058439;28;20472;-69
2022/01/09 06:49:14;;;;;;;1.70;1.60;;;;;;;22.43;9.10;99525.06;5056592;28;20025;-70
2022/01/09 06:51:39;;;;;;;2.47;1.88;;;;;;;22.45;8.81;99533.75;5054621;28;20487;-70
2022/01/09 06:54:05;;;;;;;1.60;1.50;;;;;;;22.47;9.09;99530.72;5054651;28;20024;-69
2022/01/09 06:56:30;;;;;;;2.08;1.88;;;;;;;22.45;9.09;99541.09;5054461;28;20028;-69
2022/01/09 06:58:55;;;;;;;1.98;1.65;;;;;;;22.48;9.01;99541.34;5054501;28;20017;-70
2022/01/09 07:01:21;;;;;;;1.83;1.73;;;;;;;22.45;9.00;99549.28;5054646;28;20061;-69
2022/01/09 07:03:46;;;;;;;2.20;1.70;;;;;;;22.45;9.03;99552.00;5054374;28;20353;-69
2022/01/09 07:06:12;;;;;;;1.65;1.55;;;;;;;22.45;9.08;99552.00;5053751;28;20021;-70
2022/01/09 07:08:37;;;;;;;2.08;1.88;;;;;;;22.42;8.89;99552.56;5054252;28;20032;-70
2022/01/09 07:11:06;;;;;;;1.90;1.70;;;;;;;22.46;8.99;99556.34;5053088;28;20428;-70
2022/01/09 07:13:32;;;;;;;1.90;1.70;;;;;;;22.43;9.06;99559.63;5054201;28;20028;-70
2022/01/09 07:15:57;;;;;;;1.92;1.70;;;;;;;22.47;9.01;99558.78;5054255;28;20052;-70
2022/01/09 07:18:23;;;;;;;1.40;1.30;;;;;;;22.45;8.99;99565.59;5053674;28;20053;-69
2022/01/09 07:20:48;;;;;;;1.98;1.70;;;;;;;22.48;9.00;99570.47;5053893;28;20448;-69
2022/01/09 07:23:14;;;;;;;1.83;1.70;;;;;;;22.46;9.07;99575.41;5052948;28;20028;-69
2022/01/09 07:25:39;;;;;;;1.90;1.70;;;;;;;22.43;8.96;99582.22;5054137;28;20043;-70
2022/01/09 07:28:05;;;;;;;1.60;1.50;;;;;;;22.44;9.03;99580.34;5053986;28;20383;-70
2022/01/09 07:30:30;;;;;;;2.03;1.80;;;;;;;22.45;9.06;99587.38;5054011;28;20530;-70
2022/01/09 07:32:55;;;;;;;2.00;1.73;;;;;;;22.45;9.08;99590.09;5053975;28;20021;-69
2022/01/09 07:35:21;;;;;;;2.15;1.90;;;;;;;22.38;9.07;99595.88;5053547;28;20112;-70
2022/01/09 07:37:46;;;;;;;2.20;2.00;;;;;;;22.42;9.03;99594.22;5053698;28;20050;-70
2022/01/09 07:40:12;;;;;;;2.33;2.10;;;;;;;22.44;8.93;99593.94;5053487;28;20028;-69
2022/01/09 07:42:38;;;;;;;2.20;1.70;;;;;;;22.47;9.05;99593.34;5063160;28;20027;-70
2022/01/09 07:45:06;;;;;;;1.75;1.65;;;;;;;22.43;9.14;99592.31;5073459;28;20029;-69
2022/01/09 07:47:33;;;;;;;2.13;1.70;;;;;;;22.39;9.09;99599.44;5073782;28;20127;-69
2022/01/09 07:49:58;;;;;;;1.95;1.73;;;;;;;22.43;9.08;99600.47;5073890;28;20028;-69
2022/01/09 07:52:23;;;;;;;2.30;2.08;;;;;;;22.47;9.15;99596.91;5073764;28;20029;-69
2022/01/09 07:54:49;;;;;;;1.77;1.58;;;;;;;22.42;9.09;99599.66;5074077;28;20031;-70
2022/01/09 07:57:14;;;;;;;2.00;1.77;;;;;;;22.43;9.03;99595.84;5073460;28;20489;-70
2022/01/09 07:59:40;;;;;;;2.33;1.98;;;;;;;22.43;9.20;99605.91;5073530;28;20024;-70
2022/01/09 08:02:05;;;;;;;2.08;1.70;;;;;;;22.43;9.10;99598.56;5073229;28;20020;-70
2022/01/09 08:04:31;;;;;;;1.48;1.33;;;;;;;22.45;9.14;99592.84;5073305;28;20047;-69
2022/01/09 08:06:56;;;;;;;2.00;1.90;;;;;;;22.44;9.13;99594.75;5073565;28;20025;-70
2022/01/09 08:09:21;;;;;;;2.35;2.10;;;;;;;22.46;9.05;99594.47;5073125;28;20505;-70
2022/01/09 08:11:47;;;;;;;2.30;1.92;;;;;;;22.48;9.11;99605.88;5073441;28;20021;-70
2022/01/09 08:14:12;;;;;;;2.05;1.85;;;;;;;22.44;9.12;99607.56;5073329;28;20029;-69
2022/01/09 08:16:37;;;;;;;2.15;1.80;;;;;;;22.40;9.12;99607.28;5073443;28;20024;-69
2022/01/09 08:19:03;;;;;;;2.00;1.80;;;;;;;22.47;9.12;99615.97;5076625;28;20105;-69
2022/01/09 08:21:29;;;;;;;2.00;1.80;;;;;;;22.50;9.00;99612.66;5077639;28;20093;-70
2022/01/09 08:23:55;;;;;;;2.30;2.10;;;;;;;22.47;9.08;99617.84;5077453;28;20039;-70
2022/01/09 08:26:20;;;;;;;2.17;1.98;;;;;;;22.45;9.28;99620.06;5077300;28;20028;-69
2022/01/09 08:28:48;;;;;;;2.40;2.10;;;;;;;22.41;9.13;99624.47;5077528;28;20024;-70
2022/01/09 08:31:14;;;;;;;2.22;2.03;;;;;;;22.41;9.12;99630.69;5076974;28;20398;-69
2022/01/09 08:33:40;;;;;;;1.90;1.80;;;;;;;22.44;9.10;99629.34;5077484;28;20029;-70
2022/01/09 08:36:05;;;;;;;2.30;2.00;;;;;;;22.42;9.20;99626.06;5077287;28;20027;-70
2022/01/09 08:38:30;;;;;;;2.17;1.98;;;;;;;22.44;9.08;99627.41;5077225;28;20027;-69
2022/01/09 08:40:56;;;;;;;1.95;1.67;;;;;;;22.47;9.01;99634.19;5077192;28;20077;-69
2022/01/09 08:43:22;;;;;;;2.50;1.90;;;;;;;22.43;9.10;99635.88;5062374;28;20033;-70
2022/01/09 08:45:47;;;;;;;2.05;1.80;;;;;;;22.43;9.09;99638.59;5057050;28;20024;-70
2022/01/09 08:48:13;;;;;;;2.33;1.92;;;;;;;22.44;9.15;99638.31;5057053;28;20035;-69
2022/01/09 08:50:38;;;;;;;2.20;2.00;;;;;;;22.47;8.96;99650.53;5056971;28;20529;-70
2022/01/09 08:53:04;;;;;;;2.55;2.05;;;;;;;22.39;9.10;99651.16;5056987;28;20018;-70
2022/01/09 08:55:29;;;;;;;2.20;2.00;;;;;;;22.40;9.15;99650.03;5056551;28;20032;-69
2022/01/09 08:57:57;;;;;;;2.35;2.10;;;;;;;22.37;9.15;99648.72;5056772;28;20017;-69
2022/01/09 09:00:23;;;;;;;2.17;1.90;;;;;;;22.44;9.08;99653.84;5056956;28;20464;-69
2022/01/09 09:02:48;;;;;;;2.28;2.05;;;;;;;22.42;9.16;99656.00;5056489;28;20036;-69
2022/01/09 09:05:13;;;;;;;2.13;1.92;;;;;;;22.44;9.12;99662.00;5056651;28;20075;-69
2022/01/09 09:07:39;;;;;;;2.10;1.90;;;;;;;22.42;9.16;99658.72;5056609;28;20036;-70
2022/01/09 09:10:05;;;;;;;2.20;2.00;;;;;;;22.42;9.19;99672.34;5056233;28;20037;-69
2022/01/09 09:12:32;;;;;;;2.15;1.85;;;;;;;22.50;9.08;99671.75;5057120;28;20110;-70
2022/01/09 09:14:59;;;;;;;2.40;1.98;;;;;;;22.41;9.16;99687.06;5056587;28;20025;-70
2022/01/09 09:17:25;;;;;;;2.08;1.88;;;;;;;22.44;9.12;99695.47;5056243;28;20065;-70
2022/01/09 09:19:50;;;;;;;2.03;1.77;;;;;;;22.41;9.12;99696.03;5056594;28;20082;-69
2022/01/09 09:22:16;;;;;;;2.25;2.05;;;;;;;22.45;9.05;99699.00;5056436;28;20110;-70
2022/01/09 09:24:41;;;;;;;2.63;2.10;;;;;;;22.46;9.27;99703.38;5057061;28;20088;-69
2022/01/09 09:27:07;;;;;;;2.10;1.90;;;;;;;22.46;9.09;99700.66;5056308;28;20460;-70
2022/01/09 09:29:32;;;;;;;2.78;2.35;;;;;;;22.37;9.21;99699.59;5055619;28;20044;-70
2022/01/09 09:31:57;;;;;;;2.20;2.00;;;;;;;22.45;9.16;99696.28;5057010;28;20021;-70
2022/01/09 09:34:23;;;;;;;2.40;2.10;;;;;;;22.41;9.06;99701.50;5056813;28;20051;-69
2022/01/09 09:36:48;;;;;;;2.85;2.15;;;;;;;22.41;9.17;99706.94;5056530;28;20021;-69
2022/01/09 09:39:14;;;;;;;2.15;1.95;;;;;;;22.39;9.06;99708.31;5056403;28;20028;-69
2022/01/09 09:41:41;;;;;;;2.33;1.90;;;;;;;22.44;9.25;99708.28;5058058;28;20036;-70
2022/01/09 09:44:09;;;;;;;2.25;1.90;;;;;;;22.41;9.07;99712.38;5077694;28;20446;-69
2022/01/09 09:46:35;;;;;;;2.83;1.98;;;;;;;22.42;9.12;99724.91;5074469;28;20493;-69
2022/01/09 09:49:01;;;;;;;2.63;2.33;;;;;;;22.42;9.10;99719.47;5075983;28;20056;-69
2022/01/09 09:51:29;;;;;;;2.22;1.77;;;;;;;22.40;9.14;99718.09;5075867;28;20017;-70
2022/01/09 09:53:55;;;;;;;3.08;2.20;;;;;;;22.39;9.04;99725.47;5075756;28;20078;-70
2022/01/09 09:56:20;;;;;;;3.45;2.30;;;;;;;22.41;9.04;99731.44;5075866;28;20107;-70
2022/01/09 09:58:47;;;;;;;2.75;2.00;;;;;;;22.43;9.15;99736.59;5075741;28;20020;-70
2022/01/09 10:01:31;;;;;;;2.90;2.45;;;;;;;22.44;9.09;99736.31;5075677;28;20052;-69
2022/01/09 10:04:00;;;;;;;2.05;1.83;;;;;;;22.46;8.99;99730.59;5075691;28;20097;-69
2022/01/09 10:06:46;;;;;;;2.13;1.92;;;;;;;22.47;9.16;99726.75;5075631;28;20033;-69
2022/01/09 10:09:16;;;;;;;2.30;1.95;;;;;;;22.41;9.09;99727.91;5075493;28;20115;-69
2022/01/09 10:11:47;;;;;;;2.45;2.10;;;;;;;22.43;9.02;99733.88;5075543;28;20142;-69
2022/01/09 10:14:17;;;;;;;2.10;1.90;;;;;;;22.42;9.13;99734.97;5075406;28;20029;-69
2022/01/09 10:17:04;;;;;;;2.42;1.95;;;;;;;22.40;9.12;99737.97;5075192;28;20048;-69
2022/01/09 10:19:50;;;;;;;2.22;1.63;;;;;;;22.44;9.13;99739.03;5073952;28;20478;-69
2022/01/09 10:22:22;;;;;;;2.25;1.92;;;;;;;22.47;9.12;99740.38;5075559;28;20090;-68
2022/01/09 10:24:47;;;;;;;2.60;2.15;;;;;;;22.44;9.00;99746.41;5075844;28;20485;-69
2022/01/09 10:27:39;;;;;;;2.45;1.90;;;;;;;22.43;9.02;99753.72;5075197;28;20028;-69
2022/01/09 10:30:05;;;;;;;2.95;2.28;;;;;;;22.44;9.03;99760.00;5073652;28;20497;-69
2022/01/09 10:32:31;;;;;;;2.30;2.10;;;;;;;22.42;9.09;99756.75;5074686;28;20032;-69
2022/01/09 10:35:10;;;;;;;2.25;2.05;;;;;;;22.44;9.05;99760.00;5075075;28;20021;-68
2022/01/09 10:37:36;;;;;;;2.45;1.88;;;;;;;22.43;9.14;99769.28;5074850;28;20027;-69
2022/01/09 10:40:05;;;;;;;2.85;2.00;;;;;;;22.37;9.11;99775.81;5074945;28;20024;-69
2022/01/09 10:42:31;;;;;;;2.15;1.90;;;;;;;22.40;9.02;99769.81;5068722;28;20060;-69
2022/01/09 10:44:56;;;;;;;2.20;2.00;;;;;;;22.40;9.12;99772.53;5054845;28;20467;-69
2022/01/09 10:47:21;;;;;;;2.22;1.98;;;;;;;22.36;9.13;99779.66;5053347;28;20025;-69
2022/01/09 10:49:51;;;;;;;2.97;2.15;;;;;;;22.42;9.00;99783.97;5054697;28;20029;-69
2022/01/09 10:52:25;;;;;;;2.15;1.80;;;;;;;22.44;9.03;99793.50;5054680;28;20032;-69
2022/01/09 10:54:52;;;;;;;2.58;2.08;;;;;;;22.44;9.01;99789.97;5055083;28;20021;-70
2022/01/09 10:57:28;;;;;;;2.58;2.08;;;;;;;22.46;9.11;99788.56;5054432;28;20025;-69
2022/01/09 10:59:55;;;;;;;2.47;2.10;;;;;;;22.40;9.04;99788.88;5054205;28;20032;-70
2022/01/09 11:02:21;;;;;;;1.98;1.77;;;;;;;22.40;9.01;99797.03;5036623;28;20471;-69
2022/01/09 11:04:47;;;;;;;2.35;1.80;;;;;;;22.41;9.07;99794.03;5054239;28;20021;-69
2022/01/09 11:07:13;;;;;;;2.40;2.15;;;;;;;22.43;9.06;99804.66;5052801;28;20053;-69
2022/01/09 11:09:39;;;;;;;2.63;2.30;;;;;;;22.42;9.02;99800.28;5054020;28;20056;-69
2022/01/09 11:12:06;;;;;;;2.38;2.10;;;;;;;22.38;9.09;99805.50;5052804;28;20159;-70
2022/01/09 11:14:35;;;;;;;2.47;2.10;;;;;;;22.42;9.07;99805.75;5036595;28;20029;-69
2022/01/09 11:17:03;;;;;;;2.40;2.20;;;;;;;22.40;9.04;99819.63;5052745;28;20131;-69
2022/01/09 11:19:29;;;;;;;2.20;2.00;;;;;;;22.41;9.16;99815.03;5053039;28;20045;-69
2022/01/09 11:21:59;;;;;;;2.92;2.25;;;;;;;22.46;9.09;99828.59;5054493;28;20447;-69
2022/01/09 11:24:49;;;;;;;2.00;1.80;;;;;;;22.50;9.02;99825.03;5054251;28;20068;-69
2022/01/09 11:27:22;;;;;;;2.28;2.08;;;;;;;22.43;9.17;99827.25;5054017;28;20029;-69
2022/01/09 11:30:05;;;;;;;2.65;2.22;;;;;;;22.47;9.25;99824.78;5053752;28;20091;-69
2022/01/09 11:32:40;;;;;;;2.05;1.70;;;;;;;22.45;8.93;99832.41;5053725;28;20476;-69
2022/01/09 11:35:42;;;;;;;2.05;1.73;;;;;;;22.51;9.26;99825.84;5053659;28;20034;-70
2022/01/09 11:38:35;;;;;;;2.20;2.00;;;;;;;22.44;9.13;99828.88;5053644;28;20032;-70